world map with XCH marked

XCH - Airport

This information may not be accurate or current and is not valid for navigation or flight planning. No warranty of fitness for any purpose is made or implied.

flag of Christmas Island

Donate via PayPal

Additional information is available on the NEW Great Circle Mapper

Location
City:  Christmas Island, Christmas Island
ICAO / IATA:YPXM / XCH

Details
Type:Airport (Aerodrome, Airfield)
Latitude:10°27'02"S (-10.450555)
Longitude:105°41'25"E (105.690278)
Datum:WGS 1984
Elevation:916 ft (279 m)
Runways:1
Longest:6900 × 148 ft (2103 × 45 m)

Time
Timezone:UTC+7 (DST+9)
Local Time:

Weather
METAR:YPXM  041400Z AUTO 20003KT //// // BKN031 OVC038 24/23 Q1014
TAF:YPXM  040446Z 0406/0506 25005KT 9999 SCT015 INTER 0406/0506 4000 SHRA BKN010

Related Locations
Nearby:
Farthest:FDA: 12443 mi / 20024 km
Fundación, MAG, CO

Find:

   beyond  
but within

Other Information
Maps:
Sources:

  


 


Great Circle Mapper   Great Circle Mapper
Great Circle Mapper FAQ   Great Circle Mapper FAQ
  Karl's Home Page
KLS˛   KLS˛ Home
   GC on Facebook
Airlines of the World   Airlines of the World
Donate via PayPal


Copyright © 2004-2019, Karl L. Swartz. All rights reserved.
All trademarks mentioned herein belong to their respective owners.

Please see credits for attribution and copyright information.

Karl Swartz <karl@kls2.com>
  Powered by FreeBSD
Valid HTML 4.01!
Labeled with ICRA
hCard Microformat
Geo Microformat